Aeroporto :
LOGIN :

Iscrizione | Disclaimer

   EN    FR    IT 

 










Sommario :    VFR   VFR Marginale   IFR   IFR Intensivo   IFR Molto Intensivo
Visibilità : 
Base nubi : 
>= 8 km
>= 3000ft
5 / 8 km
1000 / 3000 ft
1500m / 5 km
500 / 1000 ft
800 / 1500m
200 / 500 ft
< 800m
< 200 ft
Simboli :   Temporali  Nebbia  Neve Forte  Precipitazioni Forti  Vento > 20 kt
SIGMETs :   Varie  Temporali  Ghiacco  Turbolenza  Onda orograficha  Ceneri Vulcaniche






- Altitudine del aeroporto : 25 ft
- Codice IATA : TPS


LICT - Vincenzo Florio Trapani

ULTIMO METAR :
  • 242355Z 20003KT 9999 BKN015 14/13 Q1020 RMK BKN VIS MIN 9999 WIND THR13 21003KT WHT

METARs OBSOLETI :
  • 242255Z 30003KT 9999 BKN015 14/13 Q1021 RMK BKN VIS MIN 9999 WIND THR13 25003KT WHT
  • 242155Z 31004KT 9999 BKN015 14/13 Q1021

TAF TAF LICT
Valido dal 25 a 00 ore il 25 a 09 ore UTC


242300Z 2500/2509 VRB03KT 9999 BKN015



MetMap, La meteo Aeronautica in un colpo d'occhio ! - Copyright ORBIFLY Dicembre 2007 - Disclaimer

ORBIFLY MET'MAP TEAM :

Programmazione e sviluppo : Alexandra Zaïnal
Concezione : Baudouin d'Aumeries
Aiuto per la programmazione : Marc-Olivier Méhu
Supporto tecnico e logistico : Manuel Goepfert
Aiuto per la traduzione : Arnaldo La Scala

Contatto : metmap@orbifly.com




FONTI E CREDITI :

   NOAA